Time;durP1;ratioP1;P1;durP2;ratioP2;P2;SDS_P1;SDS_P2;PMS_P1;PMS_P2;Temp;Humidity;BMP_temperature;BMP_pressure;BME280_temperature;BME280_humidity;BME280_pressure;Samples;Min_cycle;Max_cycle;Signal;HPM_P1;HPM_P2
2021/12/28 00:00:48;;;;;;;5.67;1.73;;;10.10;99.90;;;;;;5073817;28;20205;-65
2021/12/28 00:03:15;;;;;;;4.80;1.80;;;10.00;99.90;;;;;;5073573;28;20292;-65
2021/12/28 00:05:43;;;;;;;3.87;1.60;;;10.00;99.90;;;;;;5073648;28;20229;-65
2021/12/28 00:08:10;;;;;;;2.90;1.53;;;9.90;99.90;;;;;;5073505;28;20225;-65
2021/12/28 00:10:37;;;;;;;5.00;2.90;;;9.90;99.90;;;;;;5073718;28;20212;-66
2021/12/28 00:13:03;;;;;;;4.07;1.33;;;9.90;99.90;;;;;;5075328;28;20258;-68
2021/12/28 00:15:48;;;;;;;3.27;1.40;;;9.80;99.90;;;;;;5074423;28;20668;-66
2021/12/28 00:18:14;;;;;;;3.10;1.23;;;9.70;99.90;;;;;;5073526;28;20204;-67
2021/12/28 00:20:45;;;;;;;4.50;1.20;;;9.70;99.90;;;;;;5073087;28;20209;-65
2021/12/28 00:23:14;;;;;;;3.17;1.33;;;9.60;99.90;;;;;;5073519;28;20212;-67
2021/12/28 00:25:41;;;;;;;6.57;1.50;;;9.60;99.90;;;;;;5073079;28;20233;-65
2021/12/28 00:28:08;;;;;;;4.70;1.90;;;9.50;99.90;;;;;;5073203;28;20646;-65
2021/12/28 00:30:35;;;;;;;2.90;1.30;;;9.50;99.90;;;;;;5072875;28;20730;-67
2021/12/28 00:33:04;;;;;;;4.37;1.63;;;9.50;99.90;;;;;;5073102;28;20252;-67
2021/12/28 00:35:33;;;;;;;6.50;2.63;;;9.50;99.90;;;;;;5072677;28;20602;-65
2021/12/28 00:38:01;;;;;;;7.03;1.80;;;9.50;99.90;;;;;;5072829;28;20232;-67
2021/12/28 00:40:28;;;;;;;4.87;1.50;;;9.40;99.90;;;;;;5072889;28;20212;-67
2021/12/28 00:42:55;;;;;;;5.30;1.47;;;9.40;99.90;;;;;;5072962;28;20205;-67
2021/12/28 00:45:22;;;;;;;5.67;1.60;;;9.40;99.90;;;;;;5072514;28;20247;-67
2021/12/28 00:47:49;;;;;;;5.97;1.60;;;9.40;99.90;;;;;;5072536;28;20225;-67
2021/12/28 00:50:18;;;;;;;3.43;1.50;;;9.40;99.90;;;;;;5072843;28;20212;-67
2021/12/28 00:52:46;;;;;;;3.77;1.40;;;9.40;99.90;;;;;;5072853;28;20235;-67
2021/12/28 00:55:16;;;;;;;7.67;2.20;;;9.30;99.90;;;;;;5072414;28;20207;-67
2021/12/28 00:57:43;;;;;;;5.43;1.70;;;9.40;99.90;;;;;;5072482;28;20889;-67
2021/12/28 01:00:12;;;;;;;7.60;1.40;;;9.30;99.90;;;;;;5072524;28;20201;-67
2021/12/28 01:02:39;;;;;;;6.20;1.53;;;9.30;99.90;;;;;;5072499;28;20215;-67
2021/12/28 01:05:07;;;;;;;4.97;1.60;;;9.30;99.90;;;;;;5072301;28;20236;-67
2021/12/28 01:07:34;;;;;;;4.57;1.20;;;9.30;99.90;;;;;;5072607;28;20224;-67
2021/12/28 01:10:01;;;;;;;6.53;2.20;;;9.30;99.90;;;;;;5072568;28;20200;-67
2021/12/28 01:12:30;;;;;;;6.17;1.97;;;9.20;99.90;;;;;;5072442;28;20308;-65
2021/12/28 01:14:56;;;;;;;5.30;1.80;;;9.20;99.90;;;;;;5072064;28;20209;-65
2021/12/28 01:17:23;;;;;;;4.83;1.40;;;9.10;99.90;;;;;;5072469;28;20281;-64
2021/12/28 01:19:50;;;;;;;4.47;1.30;;;9.10;99.90;;;;;;5072514;28;20204;-64
2021/12/28 01:22:17;;;;;;;5.53;1.30;;;9.10;99.90;;;;;;5072175;28;20625;-65
2021/12/28 01:24:44;;;;;;;7.57;2.03;;;9.10;99.90;;;;;;5072008;28;20270;-65
2021/12/28 01:27:11;;;;;;;4.43;1.30;;;9.10;99.90;;;;;;5072119;28;20227;-64
2021/12/28 01:29:40;;;;;;;7.27;1.70;;;9.00;99.90;;;;;;5072087;28;20697;-65
2021/12/28 01:32:08;;;;;;;4.43;1.33;;;8.90;99.90;;;;;;5072431;28;20205;-65
2021/12/28 01:34:35;;;;;;;8.10;1.70;;;8.90;99.90;;;;;;5072425;28;20379;-65
2021/12/28 01:37:02;;;;;;;5.63;2.50;;;8.90;99.90;;;;;;5072300;28;20240;-65
2021/12/28 01:39:29;;;;;;;2.53;1.40;;;8.80;99.90;;;;;;5072105;28;20266;-65
2021/12/28 01:41:55;;;;;;;4.77;1.40;;;8.90;99.90;;;;;;5072172;28;20208;-66
2021/12/28 01:44:23;;;;;;;3.27;1.27;;;8.90;99.90;;;;;;5071959;28;20642;-65
2021/12/28 01:46:51;;;;;;;7.90;1.50;;;8.90;99.90;;;;;;5071952;28;20311;-67
2021/12/28 01:49:18;;;;;;;5.43;1.73;;;8.90;99.90;;;;;;5071921;28;20695;-65
2021/12/28 01:51:44;;;;;;;7.23;1.40;;;8.90;99.90;;;;;;5072040;28;20216;-65
2021/12/28 01:54:11;;;;;;;3.83;1.37;;;8.90;99.90;;;;;;5071906;28;20204;-65
2021/12/28 01:56:41;;;;;;;6.07;1.80;;;9.00;99.90;;;;;;5071572;28;20217;-65
2021/12/28 01:59:09;;;;;;;2.87;1.17;;;9.00;99.90;;;;;;5072117;28;20233;-65
2021/12/28 02:01:36;;;;;;;5.33;1.50;;;9.00;99.90;;;;;;5072041;28;20215;-65
2021/12/28 02:04:13;;;;;;;5.83;1.80;;;9.00;99.90;;;;;;5071790;28;20626;-65
2021/12/28 02:06:40;;;;;;;5.07;1.50;;;9.00;99.90;;;;;;5071836;28;20228;-65
2021/12/28 02:09:07;;;;;;;7.97;1.70;;;9.10;99.90;;;;;;5072458;28;20242;-65
2021/12/28 02:11:34;;;;;;;5.50;1.40;;;9.10;99.90;;;;;;5076071;28;20647;-65
2021/12/28 02:14:01;;;;;;;5.17;1.53;;;9.20;99.90;;;;;;5075890;28;20204;-65
2021/12/28 02:16:28;;;;;;;4.80;1.57;;;9.20;99.90;;;;;;5075483;28;20252;-65
2021/12/28 02:18:55;;;;;;;4.17;1.53;;;9.20;99.90;;;;;;5075734;28;20326;-65
2021/12/28 02:21:23;;;;;;;6.20;1.63;;;9.30;99.90;;;;;;5075767;28;20235;-65
2021/12/28 02:23:50;;;;;;;6.37;1.67;;;9.30;99.90;;;;;;5075433;28;20201;-65
2021/12/28 02:26:16;;;;;;;7.57;1.80;;;9.20;99.90;;;;;;5075288;28;20285;-66
2021/12/28 02:28:43;;;;;;;6.93;1.80;;;9.20;99.90;;;;;;5075677;28;20212;-66
2021/12/28 02:31:10;;;;;;;7.47;1.87;;;9.20;99.90;;;;;;5075548;28;20212;-66
2021/12/28 02:33:37;;;;;;;7.20;2.13;;;9.20;99.90;;;;;;5075375;28;20673;-66
2021/12/28 02:36:05;;;;;;;7.57;1.70;;;9.20;99.90;;;;;;5074937;28;20282;-65
2021/12/28 02:38:34;;;;;;;7.80;2.10;;;9.30;99.90;;;;;;5075714;28;20201;-65
2021/12/28 02:41:02;;;;;;;6.03;1.90;;;9.30;99.90;;;;;;5075614;28;20205;-65
2021/12/28 02:43:28;;;;;;;8.27;2.00;;;9.30;99.90;;;;;;5075840;28;20588;-65
2021/12/28 02:45:58;;;;;;;7.90;2.00;;;9.30;99.90;;;;;;5075784;28;20229;-65
2021/12/28 02:48:26;;;;;;;10.03;2.17;;;9.30;99.90;;;;;;5076137;28;20267;-65
2021/12/28 02:50:56;;;;;;;10.43;2.40;;;9.30;99.90;;;;;;5075515;28;20201;-65
2021/12/28 02:53:24;;;;;;;6.10;1.93;;;9.30;99.90;;;;;;5075394;28;20208;-64
2021/12/28 02:55:54;;;;;;;12.40;2.50;;;9.30;99.90;;;;;;5074849;28;20257;-64
2021/12/28 02:58:27;;;;;;;9.10;2.20;;;9.30;99.90;;;;;;5075334;28;20208;-65
2021/12/28 03:00:57;;;;;;;8.53;2.43;;;9.30;99.90;;;;;;5074901;28;20213;-65
2021/12/28 03:03:27;;;;;;;10.53;1.93;;;9.30;99.90;;;;;;5074797;28;20266;-64
2021/12/28 03:05:57;;;;;;;10.53;2.33;;;9.30;99.90;;;;;;5074611;28;20229;-64
2021/12/28 03:08:27;;;;;;;6.53;1.80;;;9.30;99.90;;;;;;5074965;28;20342;-65
2021/12/28 03:10:57;;;;;;;6.77;2.00;;;9.40;99.90;;;;;;5074948;28;20205;-64
2021/12/28 03:13:25;;;;;;;8.17;1.80;;;9.30;99.90;;;;;;5074847;28;20205;-65
2021/12/28 03:15:53;;;;;;;12.10;2.60;;;9.20;99.90;;;;;;5074287;28;20254;-64
2021/12/28 03:18:20;;;;;;;8.17;2.43;;;9.20;99.90;;;;;;5074882;28;20209;-64
2021/12/28 03:20:48;;;;;;;7.23;1.83;;;9.10;99.90;;;;;;5073494;28;20209;-64
2021/12/28 03:23:16;;;;;;;8.40;2.07;;;9.00;99.90;;;;;;5074790;28;20278;-65
2021/12/28 03:25:43;;;;;;;9.77;2.57;;;8.90;99.90;;;;;;5074202;28;20224;-65
2021/12/28 03:28:16;;;;;;;6.87;2.30;;;9.00;99.90;;;;;;5074299;28;20228;-64
2021/12/28 03:30:43;;;;;;;10.57;2.73;;;9.00;99.90;;;;;;5074797;28;20227;-65
2021/12/28 03:33:10;;;;;;;4.87;2.00;;;8.90;99.90;;;;;;5074520;28;20208;-64
2021/12/28 03:35:37;;;;;;;7.77;1.70;;;9.00;99.90;;;;;;5074190;28;20201;-64
2021/12/28 03:38:03;;;;;;;8.60;1.90;;;8.90;99.90;;;;;;5074065;28;20650;-64
2021/12/28 03:40:30;;;;;;;4.33;1.70;;;8.80;99.90;;;;;;5074247;28;20216;-65
2021/12/28 03:42:57;;;;;;;8.67;2.13;;;8.70;99.90;;;;;;5074330;28;20204;-64
2021/12/28 03:45:26;;;;;;;6.00;2.10;;;8.70;99.90;;;;;;5073715;28;20715;-64
2021/12/28 03:47:53;;;;;;;5.67;1.60;;;8.70;99.90;;;;;;5074143;28;20225;-64
2021/12/28 03:50:22;;;;;;;9.90;2.10;;;8.70;99.90;;;;;;5074213;28;20402;-65
2021/12/28 03:52:49;;;;;;;8.63;2.07;;;8.80;99.90;;;;;;5073960;28;20259;-65
2021/12/28 03:55:15;;;;;;;7.23;1.70;;;8.90;99.90;;;;;;5073611;28;20993;-65
2021/12/28 03:57:42;;;;;;;7.07;2.37;;;9.00;99.90;;;;;;5073871;28;20237;-65
2021/12/28 04:00:12;;;;;;;7.73;1.73;;;9.00;99.90;;;;;;5074025;28;20208;-65
2021/12/28 04:02:40;;;;;;;7.67;1.80;;;9.00;99.90;;;;;;5073906;28;20692;-64
2021/12/28 04:05:09;;;;;;;6.87;1.70;;;8.90;99.90;;;;;;5073544;28;20230;-65
2021/12/28 04:07:35;;;;;;;9.07;2.10;;;8.90;99.90;;;;;;5073683;28;20223;-65
2021/12/28 04:10:04;;;;;;;7.40;1.97;;;9.00;99.90;;;;;;5073441;28;20570;-64
2021/12/28 04:12:32;;;;;;;7.47;1.87;;;8.90;99.90;;;;;;5073804;28;20263;-64
2021/12/28 04:15:00;;;;;;;8.90;1.80;;;9.00;99.90;;;;;;5073662;28;20244;-65
2021/12/28 04:17:28;;;;;;;8.13;2.10;;;9.10;99.90;;;;;;5073545;28;20298;-65
2021/12/28 04:19:57;;;;;;;6.80;1.67;;;9.10;99.90;;;;;;5073415;28;20603;-65
2021/12/28 04:22:23;;;;;;;5.90;1.77;;;9.30;99.90;;;;;;5073383;28;20216;-64
2021/12/28 04:24:50;;;;;;;6.37;1.60;;;9.30;99.90;;;;;;5073638;28;20620;-64
2021/12/28 04:27:17;;;;;;;5.83;1.53;;;9.40;99.90;;;;;;5073196;28;20228;-64
2021/12/28 04:29:44;;;;;;;5.97;1.93;;;9.60;99.90;;;;;;5073315;28;20208;-64
2021/12/28 04:32:10;;;;;;;7.83;2.07;;;9.70;99.90;;;;;;5073022;28;20269;-64
2021/12/28 04:34:37;;;;;;;6.50;2.10;;;9.80;99.90;;;;;;5073200;28;20258;-64
2021/12/28 04:37:05;;;;;;;6.80;1.90;;;9.90;99.90;;;;;;5072894;28;20229;-64
2021/12/28 04:39:32;;;;;;;10.23;2.37;;;10.00;99.90;;;;;;5073516;28;20238;-64
2021/12/28 04:41:59;;;;;;;6.90;1.83;;;10.00;99.90;;;;;;5073915;28;20258;-64
2021/12/28 04:44:25;;;;;;;6.83;2.00;;;10.00;99.90;;;;;;5073255;28;20213;-64
2021/12/28 04:46:53;;;;;;;7.90;2.17;;;10.00;99.90;;;;;;5072680;28;20270;-63
2021/12/28 04:49:21;;;;;;;5.13;1.70;;;10.10;99.90;;;;;;5072981;28;20242;-63
2021/12/28 04:51:49;;;;;;;5.87;1.90;;;10.00;99.90;;;;;;5073329;28;20296;-63
2021/12/28 04:54:18;;;;;;;9.90;2.20;;;9.90;99.90;;;;;;5072776;28;20593;-66
2021/12/28 04:56:45;;;;;;;4.93;1.87;;;9.80;99.90;;;;;;5072682;28;20260;-63
2021/12/28 04:59:12;;;;;;;5.30;1.93;;;9.70;99.90;;;;;;5072748;28;20204;-63
2021/12/28 05:01:39;;;;;;;5.20;2.30;;;9.70;99.90;;;;;;5072738;28;20923;-64
2021/12/28 05:04:07;;;;;;;3.90;1.80;;;9.50;99.90;;;;;;5072451;28;20213;-64
2021/12/28 05:06:35;;;;;;;9.13;1.83;;;9.50;99.90;;;;;;5072348;28;20247;-64
2021/12/28 05:09:02;;;;;;;5.40;1.87;;;9.40;99.90;;;;;;5072866;28;20204;-64
2021/12/28 05:11:31;;;;;;;7.80;1.67;;;9.40;99.90;;;;;;5072709;28;20201;-63
2021/12/28 05:13:58;;;;;;;3.43;1.40;;;9.30;99.90;;;;;;5072529;28;20208;-64
2021/12/28 05:16:28;;;;;;;4.47;1.60;;;9.20;99.90;;;;;;5072283;28;20224;-64
2021/12/28 05:18:55;;;;;;;8.77;1.80;;;9.20;99.90;;;;;;5072301;28;20205;-65
2021/12/28 05:21:22;;;;;;;3.77;1.37;;;9.10;99.90;;;;;;5072537;28;20205;-63
2021/12/28 05:23:49;;;;;;;4.43;1.40;;;9.20;99.90;;;;;;5072606;28;20284;-64
2021/12/28 05:26:16;;;;;;;6.03;1.90;;;9.10;99.90;;;;;;5072171;28;20232;-64
2021/12/28 05:28:44;;;;;;;6.37;1.50;;;9.10;99.90;;;;;;5072438;28;20266;-64
2021/12/28 05:31:11;;;;;;;7.03;1.80;;;9.10;99.90;;;;;;5072250;28;20266;-63
2021/12/28 05:33:38;;;;;;;6.57;1.70;;;9.20;99.90;;;;;;5072110;28;20606;-64
2021/12/28 05:36:05;;;;;;;8.97;2.00;;;9.20;99.90;;;;;;5072082;28;20201;-64
2021/12/28 05:38:32;;;;;;;6.43;1.50;;;9.20;99.90;;;;;;5072375;28;20209;-66
2021/12/28 05:40:59;;;;;;;5.33;1.90;;;9.20;99.90;;;;;;5072196;28;20204;-63
2021/12/28 05:43:26;;;;;;;6.10;1.70;;;9.20;99.90;;;;;;5071597;28;20209;-64
2021/12/28 05:45:54;;;;;;;7.10;1.60;;;9.20;99.90;;;;;;5071354;28;20201;-64
2021/12/28 05:48:20;;;;;;;8.40;1.83;;;9.30;99.90;;;;;;5072173;28;20251;-64
2021/12/28 05:50:47;;;;;;;4.20;1.67;;;9.20;99.90;;;;;;5072118;28;20567;-64
2021/12/28 05:53:14;;;;;;;5.77;1.70;;;9.30;99.90;;;;;;5072013;28;20231;-64
2021/12/28 05:55:40;;;;;;;9.33;1.83;;;9.40;99.90;;;;;;5071638;28;20254;-64
2021/12/28 05:58:07;;;;;;;6.57;1.50;;;9.40;99.90;;;;;;5071768;28;20225;-64
2021/12/28 06:00:34;;;;;;;3.77;1.50;;;9.50;99.90;;;;;;5071950;28;20204;-64
2021/12/28 06:03:02;;;;;;;5.60;1.97;;;9.60;99.90;;;;;;5071927;28;20233;-65
2021/12/28 06:05:29;;;;;;;5.57;1.70;;;9.70;99.90;;;;;;5071478;28;20209;-64
2021/12/28 06:07:55;;;;;;;5.80;1.80;;;9.70;99.90;;;;;;5071474;28;20759;-65
2021/12/28 06:10:22;;;;;;;4.07;1.50;;;9.70;99.90;;;;;;5071832;28;20212;-64
2021/12/28 06:12:49;;;;;;;4.37;1.43;;;9.80;99.90;;;;;;5071650;28;20205;-64
2021/12/28 06:15:17;;;;;;;5.23;1.60;;;9.80;99.90;;;;;;5071499;28;20304;-64
2021/12/28 06:17:43;;;;;;;4.90;1.60;;;9.80;99.90;;;;;;5071773;28;20217;-64
2021/12/28 06:20:12;;;;;;;2.90;1.30;;;9.90;99.90;;;;;;5071828;28;20282;-64
2021/12/28 06:22:39;;;;;;;2.63;1.33;;;10.00;99.90;;;;;;5071722;28;20204;-64
2021/12/28 06:25:07;;;;;;;5.73;1.50;;;10.10;99.90;;;;;;5072745;28;20216;-64
2021/12/28 06:27:34;;;;;;;5.37;1.70;;;10.20;99.90;;;;;;5071361;28;20225;-64
2021/12/28 06:30:00;;;;;;;2.33;1.50;;;10.30;99.90;;;;;;5071785;28;20688;-64
2021/12/28 06:32:27;;;;;;;3.47;1.20;;;10.40;99.90;;;;;;5071573;28;20588;-64
2021/12/28 06:34:54;;;;;;;3.50;1.57;;;10.40;99.90;;;;;;5071500;28;20588;-64
2021/12/28 06:37:22;;;;;;;1.80;1.10;;;10.40;99.90;;;;;;5071353;28;20224;-64
2021/12/28 06:39:49;;;;;;;2.47;1.43;;;10.50;99.90;;;;;;5071655;28;20205;-65
2021/12/28 06:42:15;;;;;;;2.93;1.53;;;10.50;99.90;;;;;;5072096;28;20661;-65
2021/12/28 06:44:45;;;;;;;3.40;1.40;;;10.50;99.90;;;;;;5071517;28;20208;-65
2021/12/28 06:47:12;;;;;;;1.93;1.20;;;10.50;99.90;;;;;;5071166;28;20224;-65
2021/12/28 06:49:38;;;;;;;1.93;1.13;;;10.60;99.90;;;;;;5071324;28;20669;-65
2021/12/28 06:52:06;;;;;;;2.97;1.50;;;10.70;99.90;;;;;;5071420;28;20209;-65
2021/12/28 06:54:37;;;;;;;4.23;1.60;;;10.80;99.90;;;;;;5071358;28;20212;-65
2021/12/28 06:57:04;;;;;;;2.30;1.20;;;10.90;99.90;;;;;;5074936;28;20252;-65
2021/12/28 06:59:31;;;;;;;3.10;1.60;;;11.00;99.90;;;;;;5075062;28;20208;-64
2021/12/28 07:01:58;;;;;;;3.80;1.80;;;11.00;99.90;;;;;;5074738;28;20212;-64
2021/12/28 07:04:25;;;;;;;0.80;0.73;;;11.00;99.90;;;;;;5074749;28;20209;-64
2021/12/28 07:06:51;;;;;;;2.70;1.00;;;11.00;99.90;;;;;;5074394;28;20221;-64
2021/12/28 07:09:18;;;;;;;3.10;1.20;;;11.10;99.90;;;;;;5074747;28;20201;-64
2021/12/28 07:11:46;;;;;;;1.40;1.00;;;11.10;99.90;;;;;;5074943;28;20205;-64
2021/12/28 07:14:13;;;;;;;3.03;1.20;;;11.10;99.90;;;;;;5074752;28;20665;-64
2021/12/28 07:16:39;;;;;;;1.83;1.50;;;11.10;99.90;;;;;;5074605;28;20799;-64
2021/12/28 07:19:10;;;;;;;1.07;0.70;;;11.10;99.90;;;;;;5074935;28;20258;-64
2021/12/28 07:21:36;;;;;;;2.03;1.03;;;11.10;99.90;;;;;;5074819;28;20209;-64
2021/12/28 07:24:03;;;;;;;2.47;0.70;;;11.20;99.90;;;;;;5074849;28;20627;-64
2021/12/28 07:26:30;;;;;;;1.77;1.20;;;11.20;99.90;;;;;;5074281;28;20231;-64
2021/12/28 07:28:58;;;;;;;2.07;1.37;;;11.20;99.90;;;;;;5075004;28;20247;-65
2021/12/28 07:31:25;;;;;;;3.20;1.63;;;11.30;99.90;;;;;;5074623;28;20204;-64
2021/12/28 07:33:52;;;;;;;3.17;1.30;;;11.30;99.90;;;;;;5074357;28;20668;-65
2021/12/28 07:36:19;;;;;;;1.83;1.03;;;11.40;99.90;;;;;;5097425;22;20743;-60
2021/12/28 07:38:45;;;;;;;2.17;1.10;;;11.30;99.90;;;;;;5054344;28;20222;-60
2021/12/28 07:41:12;;;;;;;1.43;0.90;;;11.30;99.90;;;;;;5054880;28;20612;-63
2021/12/28 07:43:39;;;;;;;3.80;2.37;;;11.30;99.90;;;;;;5055119;28;20648;-61
2021/12/28 07:46:07;;;;;;;1.53;1.03;;;11.30;99.90;;;;;;5054149;28;20209;-62
2021/12/28 07:48:34;;;;;;;0.70;0.57;;;11.30;99.90;;;;;;5034103;28;20235;-61
2021/12/28 07:51:01;;;;;;;1.57;0.80;;;11.30;99.90;;;;;;5034189;28;20237;-61
2021/12/28 07:53:28;;;;;;;1.93;0.90;;;11.40;99.90;;;;;;5034201;28;20252;-61
2021/12/28 07:55:57;;;;;;;2.27;1.23;;;11.50;99.90;;;;;;5034373;28;20214;-62
2021/12/28 07:58:25;;;;;;;2.03;0.47;;;11.60;99.90;;;;;;5034229;28;20222;-62
2021/12/28 08:00:52;;;;;;;1.83;1.20;;;11.60;99.90;;;;;;5034376;28;20234;-62
2021/12/28 08:03:22;;;;;;;1.87;0.90;;;11.70;99.90;;;;;;5034030;28;20206;-61
2021/12/28 08:05:49;;;;;;;1.40;0.73;;;11.70;99.90;;;;;;5034103;28;20210;-61
2021/12/28 08:08:18;;;;;;;3.27;2.63;;;11.60;99.90;;;;;;5033476;28;20241;-60
2021/12/28 08:10:45;;;;;;;0.73;0.43;;;11.60;99.90;;;;;;5034769;28;20206;-61
2021/12/28 08:13:12;;;;;;;2.40;1.17;;;11.60;99.90;;;;;;5034575;28;20686;-60
2021/12/28 08:15:39;;;;;;;2.27;0.80;;;11.60;99.90;;;;;;5034740;28;20665;-60
2021/12/28 08:18:09;;;;;;;1.20;0.70;;;11.70;99.90;;;;;;5034381;28;20225;-60
2021/12/28 08:20:38;;;;;;;0.50;0.40;;;11.60;99.90;;;;;;5034448;28;20187;-60
2021/12/28 08:23:06;;;;;;;0.50;0.40;;;11.70;99.90;;;;;;5034000;28;20206;-60
2021/12/28 08:25:33;;;;;;;1.33;0.67;;;11.70;99.90;;;;;;5033294;28;20264;-61
2021/12/28 08:28:01;;;;;;;1.70;0.30;;;11.70;99.90;;;;;;5033163;28;20238;-60
2021/12/28 08:30:28;;;;;;;0.77;0.40;;;11.70;99.90;;;;;;5033237;28;20217;-61
2021/12/28 08:32:55;;;;;;;1.17;0.60;;;11.80;99.90;;;;;;5033487;28;20202;-60
2021/12/28 08:35:22;;;;;;;1.70;0.67;;;11.90;99.90;;;;;;5033426;28;20686;-61
2021/12/28 08:37:50;;;;;;;0.90;0.67;;;11.90;99.90;;;;;;5033115;28;20230;-61
2021/12/28 08:40:20;;;;;;;0.93;0.83;;;11.80;99.90;;;;;;5033318;28;20207;-61
2021/12/28 08:42:47;;;;;;;0.67;0.60;;;11.80;99.90;;;;;;5033574;28;20206;-61
2021/12/28 08:45:14;;;;;;;0.73;0.57;;;11.90;99.90;;;;;;5033079;28;20221;-61
2021/12/28 08:47:42;;;;;;;1.17;0.37;;;11.90;99.90;;;;;;5032934;28;20274;-60
2021/12/28 08:50:10;;;;;;;0.87;0.40;;;12.00;99.90;;;;;;5032471;28;20238;-62
2021/12/28 08:52:38;;;;;;;0.30;0.30;;;12.10;99.90;;;;;;5032815;28;20206;-60
2021/12/28 08:55:07;;;;;;;0.53;0.47;;;12.00;99.90;;;;;;5032742;28;20212;-60
2021/12/28 08:57:35;;;;;;;0.73;0.53;;;12.10;99.90;;;;;;5032814;28;20218;-61
2021/12/28 09:00:01;;;;;;;0.90;0.40;;;12.10;99.90;;;;;;5032678;28;20209;-61
2021/12/28 09:02:28;;;;;;;0.63;0.50;;;11.90;99.90;;;;;;5033031;28;20209;-61
2021/12/28 09:04:55;;;;;;;0.83;0.57;;;11.90;99.90;;;;;;5032940;28;20237;-61
2021/12/28 09:07:21;;;;;;;2.07;0.50;;;12.00;99.90;;;;;;5032944;28;20300;-61
2021/12/28 09:09:49;;;;;;;0.40;0.30;;;12.10;99.90;;;;;;5032589;28;20206;-61
2021/12/28 09:12:18;;;;;;;1.00;0.40;;;12.20;99.90;;;;;;5032802;28;20237;-62
2021/12/28 09:14:44;;;;;;;0.30;0.23;;;12.30;99.90;;;;;;5032788;28;20213;-62
2021/12/28 09:17:12;;;;;;;0.27;0.20;;;12.50;99.90;;;;;;5032444;28;20276;-61
2021/12/28 09:19:38;;;;;;;0.40;0.20;;;12.50;99.90;;;;;;5031620;28;20209;-61
2021/12/28 09:22:05;;;;;;;0.90;0.57;;;12.60;99.90;;;;;;5032451;28;20202;-62
2021/12/28 09:24:35;;;;;;;3.80;3.33;;;12.70;99.90;;;;;;5032317;28;20210;-62
2021/12/28 09:27:02;;;;;;;1.13;0.57;;;12.70;99.90;;;;;;5031792;28;20230;-59
2021/12/28 09:29:31;;;;;;;0.70;0.30;;;12.70;99.90;;;;;;5032421;28;20213;-61
2021/12/28 09:31:59;;;;;;;0.90;0.30;;;12.80;99.90;;;;;;5032387;28;20216;-60
2021/12/28 09:34:26;;;;;;;0.97;0.60;;;12.80;99.90;;;;;;5032145;28;20217;-61
2021/12/28 09:36:54;;;;;;;0.40;0.23;;;12.80;99.90;;;;;;5032385;28;20292;-60
2021/12/28 09:39:23;;;;;;;0.50;0.30;;;12.90;99.90;;;;;;5032319;28;20213;-60
2021/12/28 09:41:51;;;;;;;1.10;0.30;;;12.90;99.90;;;;;;5032338;28;20213;-61
2021/12/28 09:44:18;;;;;;;0.30;0.30;;;12.90;99.90;;;;;;5032105;28;20828;-62
2021/12/28 09:46:46;;;;;;;0.90;0.30;;;12.90;99.90;;;;;;5032053;28;20229;-61
2021/12/28 09:49:13;;;;;;;0.87;0.40;;;12.90;99.90;;;;;;5031982;28;20238;-61
2021/12/28 09:51:40;;;;;;;1.20;0.20;;;12.90;99.90;;;;;;5032257;28;20213;-61
2021/12/28 09:54:07;;;;;;;1.77;0.30;;;13.00;99.90;;;;;;5032176;28;20213;-64
2021/12/28 09:56:36;;;;;;;0.43;0.40;;;13.00;99.90;;;;;;5031965;28;20256;-65
2021/12/28 09:59:03;;;;;;;0.60;0.40;;;13.00;99.90;;;;;;5032235;28;20201;-63
2021/12/28 10:01:30;;;;;;;1.20;0.50;;;13.10;99.90;;;;;;5031871;28;20211;-64
2021/12/28 10:03:59;;;;;;;1.40;0.40;;;13.20;99.90;;;;;;5031958;28;20206;-63
2021/12/28 10:06:29;;;;;;;0.23;0.20;;;13.20;99.90;;;;;;5031658;28;20214;-62
2021/12/28 10:09:07;;;;;;;1.10;0.40;;;13.40;99.90;;;;;;5032292;28;20229;-63
2021/12/28 10:11:36;;;;;;;0.93;0.50;;;13.40;99.90;;;;;;5031902;28;20205;-63
2021/12/28 10:14:14;;;;;;;1.07;0.97;;;13.40;99.90;;;;;;5031986;28;20279;-64
2021/12/28 10:16:47;;;;;;;0.77;0.50;;;13.30;99.90;;;;;;5031658;28;20502;-63
2021/12/28 10:19:38;;;;;;;1.13;0.60;;;13.30;99.90;;;;;;5032102;28;20198;-63
2021/12/28 10:22:31;;;;;;;0.80;0.43;;;13.30;99.90;;;;;;5031965;28;20207;-63
2021/12/28 10:25:01;;;;;;;0.70;0.40;;;13.30;99.90;;;;;;5031847;28;20213;-64
2021/12/28 10:27:31;;;;;;;0.30;0.30;;;13.30;99.90;;;;;;5031995;28;20230;-64
2021/12/28 10:30:06;;;;;;;0.40;0.20;;;13.40;99.90;;;;;;5032251;28;20688;-63
2021/12/28 10:32:34;;;;;;;0.47;0.40;;;13.50;99.90;;;;;;5035686;28;20224;-64
2021/12/28 10:35:05;;;;;;;2.10;0.40;;;13.60;99.90;;;;;;5035608;28;20635;-64
2021/12/28 10:37:33;;;;;;;0.13;0.13;;;13.70;99.90;;;;;;5035251;28;20241;-63
2021/12/28 10:40:02;;;;;;;0.30;0.20;;;13.80;99.90;;;;;;5035676;28;20673;-64
2021/12/28 10:42:45;;;;;;;1.27;0.50;;;13.90;99.90;;;;;;5035552;28;20202;-66
2021/12/28 10:45:15;;;;;;;0.40;0.40;;;14.10;99.90;;;;;;5035561;28;20239;-63
2021/12/28 10:47:42;;;;;;;0.57;0.50;;;14.20;99.90;;;;;;5034887;28;20237;-63
2021/12/28 10:50:34;;;;;;;0.23;0.23;;;14.30;99.90;;;;;;5035112;28;20202;-63
2021/12/28 10:53:13;;;;;;;0.60;0.30;;;14.30;99.90;;;;;;5035290;28;20305;-63
2021/12/28 10:55:41;;;;;;;0.43;0.40;;;14.30;99.90;;;;;;5035329;28;20202;-64
2021/12/28 10:58:08;;;;;;;1.13;0.90;;;14.10;99.90;;;;;;5034912;28;20233;-63
2021/12/28 11:00:38;;;;;;;0.50;0.40;;;14.10;99.90;;;;;;5034700;28;20612;-64
2021/12/28 11:03:23;;;;;;;0.43;0.40;;;14.20;99.90;;;;;;5035111;28;20213;-66
2021/12/28 11:05:53;;;;;;;1.80;0.97;;;14.40;99.90;;;;;;5034949;28;20621;-64
2021/12/28 11:08:20;;;;;;;0.50;0.30;;;14.80;99.90;;;;;;5034847;28;20230;-64
2021/12/28 11:10:50;;;;;;;0.40;0.40;;;15.10;99.90;;;;;;5034872;28;20210;-65
2021/12/28 11:13:21;;;;;;;0.77;0.30;;;15.40;99.90;;;;;;5035236;28;20213;-64
2021/12/28 11:15:48;;;;;;;1.50;0.80;;;15.50;99.90;;;;;;5034689;28;20206;-64
2021/12/28 11:18:24;;;;;;;0.63;0.57;;;15.70;99.90;;;;;;5034738;28;20706;-66
2021/12/28 11:20:54;;;;;;;1.60;0.87;;;15.80;99.90;;;;;;5034508;28;20214;-63
2021/12/28 11:23:23;;;;;;;1.40;0.80;;;15.70;99.90;;;;;;5034712;28;20213;-64
2021/12/28 11:26:03;;;;;;;0.70;0.20;;;15.60;99.90;;;;;;5034307;28;20210;-64
2021/12/28 11:28:31;;;;;;;0.53;0.40;;;15.50;99.90;;;;;;5034474;28;20225;-64
2021/12/28 11:31:04;;;;;;;0.60;0.50;;;15.50;99.90;;;;;;5034636;28;20206;-64
2021/12/28 11:33:47;;;;;;;1.57;0.43;;;15.50;99.90;;;;;;5034653;28;20209;-64
2021/12/28 11:36:16;;;;;;;2.77;1.60;;;15.70;99.90;;;;;;5034243;28;20213;-63
2021/12/28 11:38:44;;;;;;;2.53;1.53;;;15.80;99.90;;;;;;5035078;28;20210;-69
2021/12/28 11:41:11;;;;;;;0.90;0.60;;;15.80;99.90;;;;;;5034218;28;20206;-64
2021/12/28 11:43:39;;;;;;;2.83;0.50;;;15.80;99.90;;;;;;5033991;28;20729;-65
2021/12/28 11:46:07;;;;;;;0.20;0.20;;;15.70;99.90;;;;;;5034166;28;20256;-64
2021/12/28 11:48:34;;;;;;;0.67;0.50;;;15.60;99.90;;;;;;5034495;28;20230;-68
2021/12/28 11:51:01;;;;;;;0.50;0.40;;;15.60;99.90;;;;;;5035193;28;20226;-67
2021/12/28 11:53:30;;;;;;;1.10;0.60;;;15.60;99.90;;;;;;5034457;28;20206;-63
2021/12/28 11:55:57;;;;;;;1.73;0.40;;;15.70;99.90;;;;;;5034021;28;20217;-63
2021/12/28 11:58:55;;;;;;;0.50;0.50;;;15.90;99.90;;;;;;5034148;28;20227;-63
2021/12/28 12:01:42;;;;;;;1.50;0.80;;;16.00;99.90;;;;;;5034436;28;20206;-63
2021/12/28 12:04:49;;;;;;;1.53;0.90;;;16.30;99.90;;;;;;5033810;28;20210;-64
2021/12/28 12:07:23;;;;;;;3.07;1.00;;;16.20;99.90;;;;;;4972352;28;20236;-64
2021/12/28 12:10:27;;;;;;;2.43;1.17;;;16.00;99.90;;;;;;4972759;28;20236;-64
2021/12/28 12:12:57;;;;;;;1.07;0.50;;;15.80;99.90;;;;;;5021079;28;20597;-64
2021/12/28 12:15:26;;;;;;;1.03;0.80;;;15.60;99.90;;;;;;5033743;28;20608;-66
2021/12/28 12:18:00;;;;;;;2.37;1.30;;;15.40;99.90;;;;;;5034692;28;20226;-64
2021/12/28 12:20:33;;;;;;;2.80;1.60;;;15.40;99.90;;;;;;5034500;28;20670;-63
2021/12/28 12:23:13;;;;;;;4.63;1.70;;;15.40;99.90;;;;;;5033926;28;20217;-65
2021/12/28 12:25:53;;;;;;;0.60;0.60;;;15.50;99.90;;;;;;5033703;28;20206;-64
2021/12/28 12:28:24;;;;;;;2.60;1.00;;;15.50;99.90;;;;;;5033536;28;20240;-64
2021/12/28 12:30:52;;;;;;;1.10;0.90;;;15.60;99.90;;;;;;5033212;28;20671;-62
2021/12/28 12:33:19;;;;;;;0.80;0.50;;;15.70;99.90;;;;;;5033405;28;20233;-64
2021/12/28 12:35:55;;;;;;;2.63;1.03;;;15.70;99.90;;;;;;5033492;28;20206;-64
2021/12/28 12:38:35;;;;;;;1.93;0.60;;;15.80;99.90;;;;;;5033091;28;20233;-64
2021/12/28 12:41:07;;;;;;;0.80;0.60;;;15.80;99.90;;;;;;5033590;28;20302;-65
2021/12/28 12:43:55;;;;;;;0.40;0.40;;;15.80;99.90;;;;;;5033151;28;20221;-64
2021/12/28 12:46:26;;;;;;;1.57;0.70;;;15.70;99.90;;;;;;5032995;28;20600;-65
2021/12/28 12:49:06;;;;;;;1.23;1.00;;;15.60;99.90;;;;;;5032991;28;20225;-64
2021/12/28 12:51:38;;;;;;;0.80;0.73;;;15.50;99.90;;;;;;5032969;28;20273;-65
2021/12/28 12:54:13;;;;;;;1.30;0.70;;;15.40;99.90;;;;;;5032752;28;20202;-64
2021/12/28 12:56:45;;;;;;;1.20;1.03;;;15.30;99.90;;;;;;5032911;28;20230;-65
2021/12/28 12:59:26;;;;;;;1.90;0.83;;;15.30;99.90;;;;;;5032884;28;20207;-64